createdAt,value
2024-01-05T00:00:06.166Z,87673.00
2024-01-05T00:01:06.114Z,87674.00
2024-01-05T00:02:06.103Z,87670.00
2024-01-05T00:03:06.189Z,87675.00
2024-01-05T00:04:06.178Z,87669.00
2024-01-05T00:05:06.109Z,87676.00
2024-01-05T00:06:06.194Z,87677.00
2024-01-05T00:07:06.133Z,87676.00
2024-01-05T00:08:06.116Z,87670.00
2024-01-05T00:09:06.159Z,87667.00
2024-01-05T00:10:06.110Z,87661.00
2024-01-05T00:11:06.131Z,87667.00
2024-01-05T00:12:07.415Z,87663.00
2024-01-05T00:13:06.113Z,87664.00
2024-01-05T00:14:06.121Z,87661.00
2024-01-05T00:15:06.171Z,87660.00
2024-01-05T00:16:06.116Z,87666.00
2024-01-05T00:17:06.114Z,87663.00
2024-01-05T00:18:06.220Z,87654.00
2024-01-05T00:19:06.349Z,87653.00
2024-01-05T00:20:06.262Z,87653.00
2024-01-05T00:21:06.199Z,87652.00
2024-01-05T00:22:06.194Z,87650.00
2024-01-05T00:23:06.192Z,87656.00
2024-01-05T00:24:06.245Z,87656.00
2024-01-05T00:25:06.205Z,87651.00
2024-01-05T00:26:06.198Z,87652.00
2024-01-05T00:27:06.223Z,87656.00
2024-01-05T00:28:06.196Z,87653.00
2024-01-05T00:29:06.218Z,87659.00
2024-01-05T00:30:06.410Z,87658.00
2024-01-05T00:31:06.468Z,87656.00
2024-01-05T00:32:06.211Z,87655.00
2024-01-05T00:33:06.305Z,87655.00
2024-01-05T00:34:06.385Z,87656.00
2024-01-05T00:35:06.230Z,87657.00
2024-01-05T00:36:06.251Z,87659.00
2024-01-05T00:37:06.229Z,87665.00
2024-01-05T00:38:06.243Z,87659.00
2024-01-05T00:39:06.330Z,87656.00
2024-01-05T00:40:06.245Z,87654.00
2024-01-05T00:41:06.265Z,87651.00
2024-01-05T00:42:06.318Z,87652.00
2024-01-05T00:43:06.255Z,87658.00
2024-01-05T00:44:06.279Z,87657.00
2024-01-05T00:45:06.286Z,87655.00
2024-01-05T00:46:06.258Z,87648.00
2024-01-05T00:47:06.264Z,87657.00
2024-01-05T00:48:06.348Z,87653.00
2024-01-05T00:49:06.374Z,87650.00
2024-01-05T00:50:06.272Z,87650.00
2024-01-05T00:51:06.287Z,87647.00
2024-01-05T00:52:06.290Z,87645.00
2024-01-05T00:53:06.291Z,87646.00
2024-01-05T00:54:06.320Z,87642.00
2024-01-05T00:55:06.349Z,87642.00
2024-01-05T00:56:06.430Z,87643.00
2024-01-05T00:57:07.904Z,87643.00
2024-01-05T00:58:06.476Z,87641.00
2024-01-05T00:59:06.463Z,87637.00
2024-01-05T01:00:06.513Z,87637.00
2024-01-05T01:01:06.513Z,87639.00
2024-01-05T01:02:06.472Z,87640.00
2024-01-05T01:03:06.576Z,87638.00
2024-01-05T01:04:06.592Z,87637.00
2024-01-05T01:05:06.520Z,87637.00
2024-01-05T01:06:06.508Z,87632.00
2024-01-05T01:07:06.456Z,87633.00
2024-01-05T01:08:06.473Z,87629.00
2024-01-05T01:09:06.524Z,87625.00
2024-01-05T01:10:06.479Z,87624.00
2024-01-05T01:11:06.489Z,87624.00
2024-01-05T01:12:06.558Z,87625.00
2024-01-05T01:13:06.496Z,87618.00
2024-01-05T01:14:06.485Z,87617.00
2024-01-05T01:15:06.505Z,87617.00
2024-01-05T01:16:06.504Z,87614.00
2024-01-05T01:17:06.493Z,87618.00
2024-01-05T01:18:06.642Z,87615.00
2024-01-05T01:19:06.774Z,87616.00
2024-01-05T01:20:06.523Z,87614.00
2024-01-05T01:21:06.568Z,87614.00
2024-01-05T01:22:06.511Z,87615.00
2024-01-05T01:23:06.505Z,87618.00
2024-01-05T01:24:06.562Z,87614.00
2024-01-05T01:25:06.514Z,87622.00
2024-01-05T01:26:06.512Z,87622.00
2024-01-05T01:27:06.576Z,87621.00
2024-01-05T01:28:06.511Z,87622.00
2024-01-05T01:29:06.501Z,87625.00
2024-01-05T01:30:06.623Z,87621.00
2024-01-05T01:31:06.695Z,87618.00
2024-01-05T01:32:06.522Z,87618.00
2024-01-05T01:33:06.616Z,87617.00
2024-01-05T01:34:06.618Z,87611.00
2024-01-05T01:35:06.543Z,87613.00
2024-01-05T01:36:06.568Z,87611.00
2024-01-05T01:37:06.517Z,87620.00
2024-01-05T01:38:06.532Z,87613.00
2024-01-05T01:39:06.606Z,87607.00
2024-01-05T01:40:06.629Z,87594.00
2024-01-05T01:41:06.574Z,87596.00
2024-01-05T01:42:06.624Z,87598.00
2024-01-05T01:43:06.612Z,87599.00
2024-01-05T01:44:06.565Z,87599.00
2024-01-05T01:45:06.570Z,87602.00
2024-01-05T01:46:06.582Z,87597.00
2024-01-05T01:47:06.555Z,87600.00
2024-01-05T01:48:06.825Z,87597.00
2024-01-05T01:49:06.722Z,87601.00
2024-01-05T01:50:06.612Z,87602.00
2024-01-05T01:51:06.647Z,87612.00
2024-01-05T01:52:06.609Z,87604.00
2024-01-05T01:53:06.608Z,87610.00
2024-01-05T01:54:06.683Z,87604.00
2024-01-05T01:55:06.637Z,87605.00
2024-01-05T01:56:06.651Z,87598.00
2024-01-05T01:57:06.636Z,87599.00
2024-01-05T01:58:06.618Z,87601.00
2024-01-05T01:59:06.639Z,87604.00
2024-01-05T02:00:06.727Z,87607.00
2024-01-05T02:01:06.691Z,87605.00
2024-01-05T02:02:06.628Z,87604.00
2024-01-05T02:03:06.844Z,87606.00
2024-01-05T02:04:06.743Z,87611.00
2024-01-05T02:05:06.700Z,87608.00
2024-01-05T02:06:06.784Z,87607.00
2024-01-05T02:07:06.659Z,87607.00
2024-01-05T02:08:06.645Z,87597.00
2024-01-05T02:09:06.702Z,87589.00
2024-01-05T02:10:06.643Z,87590.00
2024-01-05T02:11:06.653Z,87592.00
2024-01-05T02:12:06.701Z,87597.00
2024-01-05T02:13:06.637Z,87598.00
2024-01-05T02:14:06.644Z,87588.00
2024-01-05T02:15:06.679Z,87591.00
2024-01-05T02:16:06.679Z,87595.00
2024-01-05T02:17:06.656Z,87593.00
2024-01-05T02:18:06.733Z,87585.00
2024-01-05T02:19:06.754Z,87575.00
2024-01-05T02:20:06.653Z,87585.00
2024-01-05T02:21:06.688Z,87587.00
2024-01-05T02:22:06.663Z,87578.00
2024-01-05T02:23:06.669Z,87573.00
2024-01-05T02:24:06.734Z,87574.00
2024-01-05T02:25:06.659Z,87576.00
2024-01-05T02:26:06.733Z,87570.00
2024-01-05T02:27:06.694Z,87568.00
2024-01-05T02:28:06.671Z,87561.00
2024-01-05T02:29:06.702Z,87560.00
2024-01-05T02:30:06.733Z,87556.00
2024-01-05T02:31:06.783Z,87558.00
2024-01-05T02:32:06.680Z,87556.00
2024-01-05T02:33:06.813Z,87555.00
2024-01-05T02:34:06.756Z,87563.00
2024-01-05T02:35:06.775Z,87560.00
2024-01-05T02:36:06.710Z,87562.00
2024-01-05T02:37:06.693Z,87559.00
2024-01-05T02:38:06.696Z,87556.00
2024-01-05T02:39:06.736Z,87552.00
2024-01-05T02:40:06.700Z,87544.00
2024-01-05T02:41:06.703Z,87542.00
2024-01-05T02:42:06.728Z,87541.00
2024-01-05T02:43:06.710Z,87539.00
2024-01-05T02:44:06.703Z,87538.00
2024-01-05T02:45:06.716Z,87537.00
2024-01-05T02:46:06.747Z,87544.00
2024-01-05T02:47:06.714Z,87533.00
2024-01-05T02:48:06.916Z,87541.00
2024-01-05T02:49:06.856Z,87541.00
2024-01-05T02:50:06.705Z,87537.00
2024-01-05T02:51:06.792Z,87535.00
2024-01-05T02:52:06.713Z,87529.00
2024-01-05T02:53:06.718Z,87517.00
2024-01-05T02:54:06.779Z,87505.00
2024-01-05T02:55:06.717Z,87490.00
2024-01-05T02:56:06.717Z,87486.00
2024-01-05T02:57:06.762Z,87483.00
2024-01-05T02:58:06.723Z,87476.00
2024-01-05T02:59:06.708Z,87470.00
2024-01-05T03:00:06.738Z,87466.00
2024-01-05T03:01:06.778Z,87465.00
2024-01-05T03:02:06.716Z,87463.00
2024-01-05T03:03:07.009Z,87463.00
2024-01-05T03:04:06.832Z,87473.00
2024-01-05T03:05:06.742Z,87476.00
2024-01-05T03:06:06.737Z,87479.00
2024-01-05T03:07:06.724Z,87480.00
2024-01-05T03:08:06.729Z,87480.00
2024-01-05T03:09:06.784Z,87483.00
2024-01-05T03:10:06.757Z,87482.00
2024-01-05T03:11:06.736Z,87478.00
2024-01-05T03:12:06.859Z,87482.00
2024-01-05T03:13:06.735Z,87480.00
2024-01-05T03:14:06.737Z,87480.00
2024-01-05T03:15:06.822Z,87477.00
2024-01-05T03:16:06.751Z,87477.00
2024-01-05T03:17:06.742Z,87476.00
2024-01-05T03:18:06.963Z,87477.00
2024-01-05T03:19:06.906Z,87475.00
2024-01-05T03:20:06.803Z,87476.00
2024-01-05T03:21:06.780Z,87472.00
2024-01-05T03:22:06.760Z,87476.00
2024-01-05T03:23:06.768Z,87474.00
2024-01-05T03:24:06.847Z,87472.00
2024-01-05T03:25:06.777Z,87468.00
2024-01-05T03:26:06.771Z,87457.00
2024-01-05T03:27:06.786Z,87456.00
2024-01-05T03:28:06.771Z,87451.00
2024-01-05T03:29:06.778Z,87457.00
2024-01-05T03:30:06.895Z,87460.00
2024-01-05T03:31:06.842Z,87459.00
2024-01-05T03:32:06.801Z,87464.00
2024-01-05T03:33:06.902Z,87461.00
2024-01-05T03:34:06.952Z,87466.00
2024-01-05T03:35:06.784Z,87467.00
2024-01-05T03:36:06.899Z,87470.00
2024-01-05T03:37:06.800Z,87466.00
2024-01-05T03:38:06.784Z,87464.00
2024-01-05T03:39:06.845Z,87458.00
2024-01-05T03:40:06.784Z,87456.00
2024-01-05T03:41:06.821Z,87452.00
2024-01-05T03:42:06.897Z,87460.00
2024-01-05T03:43:06.872Z,87449.00
2024-01-05T03:44:06.914Z,87451.00
2024-01-05T03:45:06.964Z,87453.00
2024-01-05T03:46:06.916Z,87461.00
2024-01-05T03:47:06.916Z,87450.00
2024-01-05T03:48:06.994Z,87447.00
2024-01-05T03:49:06.990Z,87444.00
2024-01-05T03:50:06.920Z,87447.00
2024-01-05T03:51:06.956Z,87441.00
2024-01-05T03:52:06.925Z,87441.00
2024-01-05T03:53:06.933Z,87441.00
2024-01-05T03:54:06.958Z,87435.00
2024-01-05T03:55:06.919Z,87433.00
2024-01-05T03:56:06.944Z,87437.00
2024-01-05T03:57:06.957Z,87433.00
2024-01-05T03:58:06.914Z,87432.00
2024-01-05T03:59:06.941Z,87438.00
2024-01-05T04:00:06.987Z,87436.00
2024-01-05T04:01:06.987Z,87438.00
2024-01-05T04:02:06.944Z,87440.00
2024-01-05T04:03:07.061Z,87445.00
2024-01-05T04:04:07.045Z,87438.00
2024-01-05T04:05:06.969Z,87442.00
2024-01-05T04:06:07.040Z,87443.00
2024-01-05T04:07:07.010Z,87442.00
2024-01-05T04:08:07.033Z,87435.00
2024-01-05T04:09:07.107Z,87436.00
2024-01-05T04:10:07.096Z,87429.00
2024-01-05T04:11:07.154Z,87425.00
2024-01-05T04:12:07.193Z,87431.00
2024-01-05T04:13:07.126Z,87433.00
2024-01-05T04:14:07.207Z,87435.00
2024-01-05T04:15:07.167Z,87430.00
2024-01-05T04:16:07.145Z,87429.00
2024-01-05T04:17:07.148Z,87430.00
2024-01-05T04:18:07.314Z,87422.00
2024-01-05T04:19:07.301Z,87417.00
2024-01-05T04:20:07.164Z,87413.00
2024-01-05T04:21:07.247Z,87420.00
2024-01-05T04:22:14.415Z,87416.00
2024-01-05T04:23:14.407Z,87415.00
2024-01-05T04:24:14.430Z,87419.00
2024-01-05T04:25:14.413Z,87419.00
2024-01-05T04:26:14.421Z,87408.00
2024-01-05T04:27:14.436Z,87410.00
2024-01-05T04:28:14.416Z,87404.00
2024-01-05T04:29:14.421Z,87395.00
2024-01-05T04:30:14.543Z,87391.00
2024-01-05T04:31:21.883Z,87388.00
2024-01-05T04:32:21.786Z,87385.00
2024-01-05T04:33:21.957Z,87383.00
2024-01-05T04:34:21.835Z,87384.00
2024-01-05T04:35:21.786Z,87380.00
2024-01-05T04:36:21.955Z,87384.00
2024-01-05T04:37:21.795Z,87388.00
2024-01-05T04:38:21.801Z,87385.00
2024-01-05T04:39:21.813Z,87389.00
2024-01-05T04:40:21.810Z,87373.00
2024-01-05T04:41:21.801Z,87382.00
2024-01-05T04:42:21.810Z,87390.00
2024-01-05T04:43:21.800Z,87395.00
2024-01-05T04:44:21.808Z,87396.00
2024-01-05T04:45:21.856Z,87391.00
2024-01-05T04:46:21.804Z,87384.00
2024-01-05T04:47:21.826Z,87387.00
2024-01-05T04:48:21.924Z,87384.00
2024-01-05T04:49:21.872Z,87387.00
2024-01-05T04:50:21.824Z,87396.00
2024-01-05T04:51:21.855Z,87402.00
2024-01-05T04:52:21.819Z,87401.00
2024-01-05T04:53:21.816Z,87405.00
2024-01-05T04:54:21.897Z,87401.00
2024-01-05T04:55:21.823Z,87391.00
2024-01-05T04:56:21.823Z,87402.00
2024-01-05T04:57:21.884Z,87406.00
2024-01-05T04:58:21.850Z,87399.00
2024-01-05T04:59:21.862Z,87411.00
2024-01-05T05:00:21.973Z,87409.00
2024-01-05T05:01:22.048Z,87414.00
2024-01-05T05:02:22.070Z,87404.00
2024-01-05T05:03:22.216Z,87406.00
2024-01-05T05:04:22.192Z,87404.00
2024-01-05T05:05:22.294Z,87403.00
2024-01-05T05:06:22.403Z,87401.00
2024-01-05T05:07:22.361Z,87391.00
2024-01-05T05:08:22.373Z,87397.00
2024-01-05T05:09:22.418Z,87400.00
2024-01-05T05:10:22.384Z,87409.00
2024-01-05T05:11:22.651Z,87416.00
2024-01-05T05:12:22.417Z,87423.00
2024-01-05T05:13:22.378Z,87409.00
2024-01-05T05:14:22.378Z,87420.00
2024-01-05T05:15:22.467Z,87421.00
2024-01-05T05:16:22.765Z,87418.00
2024-01-05T05:17:22.517Z,87409.00
2024-01-05T05:18:22.456Z,87414.00
2024-01-05T05:19:22.522Z,87412.00
2024-01-05T05:20:22.414Z,87420.00
2024-01-05T05:21:23.035Z,87422.00
2024-01-05T05:22:22.461Z,87414.00
2024-01-05T05:23:22.399Z,87418.00
2024-01-05T05:24:22.428Z,87421.00
2024-01-05T05:25:22.422Z,87423.00
2024-01-05T05:26:22.883Z,87427.00
2024-01-05T05:27:22.416Z,87418.00
2024-01-05T05:28:22.412Z,87422.00
2024-01-05T05:29:22.406Z,87422.00
2024-01-05T05:30:22.516Z,87414.00
2024-01-05T05:31:22.860Z,87413.00
2024-01-05T05:32:22.450Z,87416.00
2024-01-05T05:33:22.515Z,87413.00
2024-01-05T05:34:22.558Z,87418.00
2024-01-05T05:35:22.414Z,87409.00
2024-01-05T05:36:22.446Z,87411.00
2024-01-05T05:37:22.512Z,87408.00
2024-01-05T05:38:22.418Z,87406.00
2024-01-05T05:39:22.457Z,87397.00
2024-01-05T05:40:22.426Z,87391.00
2024-01-05T05:41:22.431Z,87392.00
2024-01-05T05:42:22.429Z,87397.00
2024-01-05T05:43:22.430Z,87392.00
2024-01-05T05:44:22.428Z,87393.00
2024-01-05T05:45:22.495Z,87398.00
2024-01-05T05:46:23.337Z,87396.00
2024-01-05T05:47:22.533Z,87399.00
2024-01-05T05:48:22.732Z,87398.00
2024-01-05T05:49:22.676Z,87400.00
2024-01-05T05:50:22.633Z,87397.00
2024-01-05T05:51:24.398Z,87390.00
2024-01-05T05:52:22.758Z,87386.00
2024-01-05T05:53:22.820Z,87391.00
2024-01-05T05:54:22.897Z,87390.00
2024-01-05T05:55:22.960Z,87395.00
2024-01-05T05:56:23.061Z,87395.00
2024-01-05T05:57:23.239Z,87394.00
2024-01-05T05:58:23.144Z,87396.00
2024-01-05T05:59:23.057Z,87393.00
2024-01-05T06:00:23.088Z,87392.00
2024-01-05T06:01:23.100Z,87397.00
2024-01-05T06:02:23.077Z,87394.00
2024-01-05T06:03:23.140Z,87396.00
2024-01-05T06:04:23.092Z,87403.00
2024-01-05T06:05:23.135Z,87396.00
2024-01-05T06:06:23.297Z,87399.00
2024-01-05T06:07:23.067Z,87402.00
2024-01-05T06:08:23.071Z,87396.00
2024-01-05T06:09:23.111Z,87401.00
2024-01-05T06:10:23.079Z,87395.00
2024-01-05T06:11:25.221Z,87392.00
2024-01-05T06:12:23.120Z,87396.00
2024-01-05T06:13:23.085Z,87387.00
2024-01-05T06:14:23.095Z,87388.00
2024-01-05T06:15:23.127Z,87382.00
2024-01-05T06:16:23.100Z,87379.00
2024-01-05T06:17:23.089Z,87379.00
2024-01-05T06:18:23.244Z,87385.00
2024-01-05T06:19:23.150Z,87374.00
2024-01-05T06:20:23.107Z,87381.00
2024-01-05T06:21:23.169Z,87382.00
2024-01-05T06:22:23.139Z,87378.00
2024-01-05T06:23:23.113Z,87387.00
2024-01-05T06:24:23.157Z,87385.00
2024-01-05T06:25:23.122Z,87379.00
2024-01-05T06:26:23.121Z,87374.00
2024-01-05T06:27:32.558Z,87385.00
2024-01-05T06:28:27.776Z,87384.00
2024-01-05T06:29:23.129Z,87386.00
2024-01-05T06:30:23.181Z,87386.00
2024-01-05T06:31:23.189Z,87393.00
2024-01-05T06:32:23.130Z,87380.00
2024-01-05T06:33:23.260Z,87390.00
2024-01-05T06:34:23.199Z,87387.00
2024-01-05T06:35:23.151Z,87390.00
2024-01-05T06:36:23.215Z,87394.00
2024-01-05T06:37:23.159Z,87398.00
2024-01-05T06:38:23.145Z,87391.00
2024-01-05T06:39:23.237Z,87398.00
2024-01-05T06:40:23.156Z,87409.00
2024-01-05T06:41:23.152Z,87405.00
2024-01-05T06:42:23.271Z,87405.00
2024-01-05T06:43:23.169Z,87404.00
2024-01-05T06:44:23.150Z,87399.00
2024-01-05T06:45:23.169Z,87406.00
2024-01-05T06:46:23.157Z,87403.00
2024-01-05T06:47:23.154Z,87392.00
2024-01-05T06:48:23.412Z,87401.00
2024-01-05T06:49:23.287Z,87395.00
2024-01-05T06:50:23.355Z,87393.00
2024-01-05T06:51:23.175Z,87402.00
2024-01-05T06:52:23.157Z,87393.00
2024-01-05T06:53:23.166Z,87393.00
2024-01-05T06:54:23.204Z,87391.00
2024-01-05T06:55:23.173Z,87389.00
2024-01-05T06:56:23.186Z,87382.00
2024-01-05T06:57:23.201Z,87380.00
2024-01-05T06:58:23.183Z,87383.00
2024-01-05T06:59:23.188Z,87382.00
2024-01-05T07:00:23.190Z,87381.00
2024-01-05T07:01:23.196Z,87386.00
2024-01-05T07:02:23.181Z,87373.00
2024-01-05T07:03:23.280Z,87375.00
2024-01-05T07:04:23.197Z,87380.00
2024-01-05T07:05:23.250Z,87381.00
2024-01-05T07:06:23.229Z,87372.00
2024-01-05T07:07:23.186Z,87373.00
2024-01-05T07:08:23.193Z,87378.00
2024-01-05T07:09:23.215Z,87374.00
2024-01-05T07:10:23.203Z,87370.00
2024-01-05T07:11:23.283Z,87371.00
2024-01-05T07:12:23.245Z,87367.00
2024-01-05T07:13:23.199Z,87372.00
2024-01-05T07:14:23.204Z,87376.00
2024-01-05T07:15:23.246Z,87379.00
2024-01-05T07:16:23.218Z,87374.00
2024-01-05T07:17:23.280Z,87385.00
2024-01-05T07:18:23.322Z,87383.00
2024-01-05T07:19:23.360Z,87377.00
2024-01-05T07:20:23.216Z,87382.00
2024-01-05T07:21:23.309Z,87377.00
2024-01-05T07:22:23.215Z,87376.00
2024-01-05T07:23:23.222Z,87384.00
2024-01-05T07:24:23.244Z,87378.00
2024-01-05T07:25:23.247Z,87376.00
2024-01-05T07:26:23.240Z,87377.00
2024-01-05T07:27:23.261Z,87381.00
2024-01-05T07:28:23.250Z,87383.00
2024-01-05T07:29:23.232Z,87387.00
2024-01-05T07:30:23.497Z,87386.00
2024-01-05T07:31:23.333Z,87384.00
2024-01-05T07:32:23.250Z,87380.00
2024-01-05T07:33:23.346Z,87381.00
2024-01-05T07:34:23.415Z,87381.00
2024-01-05T07:35:23.262Z,87381.00
2024-01-05T07:36:23.269Z,87370.00
2024-01-05T07:37:23.244Z,87372.00
2024-01-05T07:38:23.246Z,87379.00
2024-01-05T07:39:23.312Z,87369.00
2024-01-05T07:40:23.255Z,87367.00
2024-01-05T07:41:23.270Z,87376.00
2024-01-05T07:42:23.313Z,87380.00
2024-01-05T07:43:23.272Z,87384.00
2024-01-05T07:44:23.262Z,87388.00
2024-01-05T07:45:23.286Z,87390.00
2024-01-05T07:46:23.705Z,87385.00
2024-01-05T07:47:23.271Z,87385.00
2024-01-05T07:48:23.406Z,87384.00
2024-01-05T07:49:23.396Z,87382.00
2024-01-05T07:50:23.293Z,87389.00
2024-01-05T07:51:23.310Z,87387.00
2024-01-05T07:52:23.280Z,87399.00
2024-01-05T07:53:23.290Z,87398.00
2024-01-05T07:54:23.329Z,87395.00
2024-01-05T07:55:23.303Z,87385.00
2024-01-05T07:56:23.298Z,87387.00
2024-01-05T07:57:23.359Z,87387.00
2024-01-05T07:58:23.303Z,87381.00
2024-01-05T07:59:23.313Z,87389.00
2024-01-05T08:00:23.336Z,87397.00
2024-01-05T08:01:23.343Z,87391.00
2024-01-05T08:02:23.305Z,87402.00
2024-01-05T08:03:23.455Z,87388.00
2024-01-05T08:04:23.358Z,87401.00
2024-01-05T08:05:23.327Z,87393.00
2024-01-05T08:06:23.416Z,87401.00
2024-01-05T08:07:23.310Z,87398.00
2024-01-05T08:08:23.307Z,87392.00
2024-01-05T08:09:23.390Z,87396.00
2024-01-05T08:10:23.313Z,87390.00
2024-01-05T08:11:23.325Z,87386.00
2024-01-05T08:12:23.376Z,87386.00
2024-01-05T08:13:23.347Z,87374.00
2024-01-05T08:14:23.315Z,87374.00
2024-01-05T08:15:23.360Z,87385.00
2024-01-05T08:16:23.323Z,87385.00
2024-01-05T08:17:23.334Z,87381.00
2024-01-05T08:18:23.414Z,87389.00
2024-01-05T08:19:23.503Z,87397.00
2024-01-05T08:20:23.341Z,87398.00
2024-01-05T08:21:23.370Z,87388.00
2024-01-05T08:22:23.322Z,87383.00
2024-01-05T08:23:23.325Z,87382.00
2024-01-05T08:24:23.356Z,87383.00
2024-01-05T08:25:24.351Z,87382.00
2024-01-05T08:26:23.368Z,87385.00
2024-01-05T08:27:23.386Z,87385.00
2024-01-05T08:28:23.331Z,87376.00
2024-01-05T08:29:23.339Z,87384.00
2024-01-05T08:30:23.434Z,87394.00
2024-01-05T08:31:23.463Z,87388.00
2024-01-05T08:32:23.412Z,87382.00
2024-01-05T08:33:23.445Z,87386.00
2024-01-05T08:34:23.432Z,87383.00
2024-01-05T08:35:23.348Z,87371.00
2024-01-05T08:36:23.483Z,87359.00
2024-01-05T08:37:23.407Z,87357.00
2024-01-05T08:38:23.425Z,87366.00
2024-01-05T08:39:23.470Z,87366.00
2024-01-05T08:40:23.483Z,87364.00
2024-01-05T08:41:23.852Z,87364.00
2024-01-05T08:42:23.618Z,87364.00
2024-01-05T08:43:23.625Z,87365.00
2024-01-05T08:44:23.634Z,87363.00
2024-01-05T08:45:23.698Z,87363.00
2024-01-05T08:52:23.667Z,87354.00
2024-01-05T08:53:23.680Z,87358.00
2024-01-05T08:54:23.699Z,87359.00
2024-01-05T08:55:23.676Z,87356.00
2024-01-05T08:56:25.517Z,87355.00
2024-01-05T08:57:23.738Z,87372.00
2024-01-05T08:58:23.683Z,87371.00
2024-01-05T08:59:23.699Z,87373.00
2024-01-05T09:00:23.745Z,87373.00
2024-01-05T09:01:24.041Z,87373.00
2024-01-05T09:02:23.711Z,87374.00
2024-01-05T09:03:23.752Z,87373.00
2024-01-05T09:04:23.732Z,87366.00
2024-01-05T09:05:23.726Z,87366.00
2024-01-05T09:06:23.815Z,87371.00
2024-01-05T09:07:23.699Z,87384.00
2024-01-05T09:08:23.691Z,87379.00
2024-01-05T09:09:23.748Z,87375.00
2024-01-05T09:10:23.734Z,87375.00
2024-01-05T09:11:23.705Z,87375.00
2024-01-05T09:12:23.757Z,87369.00
2024-01-05T09:13:23.730Z,87375.00
2024-01-05T09:14:23.703Z,87376.00
2024-01-05T09:15:23.726Z,87383.00
2024-01-05T09:16:23.720Z,87376.00
2024-01-05T09:17:23.750Z,87372.00
2024-01-05T09:18:23.876Z,87373.00
2024-01-05T09:19:25.994Z,87368.00
2024-01-05T09:20:23.708Z,87377.00
2024-01-05T09:21:23.743Z,87377.00
2024-01-05T09:22:23.723Z,87379.00
2024-01-05T09:23:23.731Z,87376.00
2024-01-05T09:24:23.749Z,87379.00
2024-01-05T09:25:23.731Z,87374.00
2024-01-05T09:26:23.740Z,87379.00
2024-01-05T09:27:23.763Z,87388.00
2024-01-05T09:28:23.723Z,87382.00
2024-01-05T09:29:23.733Z,87374.00
2024-01-05T09:30:23.786Z,87378.00
2024-01-05T09:31:23.824Z,87380.00
2024-01-05T09:32:23.814Z,87385.00
2024-01-05T09:33:23.848Z,87379.00
2024-01-05T09:34:23.807Z,87378.00
2024-01-05T09:35:23.731Z,87371.00
2024-01-05T09:36:23.815Z,87375.00
2024-01-05T09:37:23.737Z,87380.00
2024-01-05T09:38:23.755Z,87382.00
2024-01-05T09:39:23.778Z,87388.00
2024-01-05T09:40:23.753Z,87385.00
2024-01-05T09:41:23.777Z,87383.00
2024-01-05T09:42:23.772Z,87380.00
2024-01-05T09:43:23.762Z,87382.00
2024-01-05T09:44:23.754Z,87378.00
2024-01-05T09:45:23.803Z,87385.00
2024-01-05T09:46:23.779Z,87381.00
2024-01-05T09:47:23.776Z,87383.00
2024-01-05T09:48:30.234Z,87384.00
2024-01-05T09:49:24.932Z,87389.00
2024-01-05T09:50:23.884Z,87386.00
2024-01-05T09:51:23.793Z,87392.00
2024-01-05T09:52:23.765Z,87397.00
2024-01-05T09:53:23.776Z,87408.00
2024-01-05T09:54:23.798Z,87410.00
2024-01-05T09:55:23.780Z,87410.00
2024-01-05T09:56:23.803Z,87410.00
2024-01-05T09:57:23.854Z,87408.00
2024-01-05T09:58:23.766Z,87409.00
2024-01-05T09:59:23.774Z,87401.00
2024-01-05T10:00:23.830Z,87400.00
2024-01-05T10:01:23.795Z,87393.00
2024-01-05T10:02:23.811Z,87397.00
2024-01-05T10:03:23.847Z,87393.00
2024-01-05T10:04:23.852Z,87394.00
2024-01-05T10:05:23.816Z,87389.00
2024-01-05T10:06:23.838Z,87388.00
2024-01-05T10:07:23.795Z,87388.00
2024-01-05T10:08:23.799Z,87382.00
2024-01-05T10:09:23.970Z,87385.00
2024-01-05T10:10:23.805Z,87384.00
2024-01-05T10:11:23.818Z,87384.00
2024-01-05T10:12:23.843Z,87381.00
2024-01-05T10:13:23.802Z,87384.00
2024-01-05T10:14:23.807Z,87384.00
2024-01-05T10:15:23.821Z,87385.00
2024-01-05T10:16:23.833Z,87379.00
2024-01-05T10:17:23.799Z,87376.00
2024-01-05T10:18:26.000Z,87373.00
2024-01-05T10:19:23.896Z,87369.00
2024-01-05T10:20:23.807Z,87375.00
2024-01-05T10:21:23.825Z,87369.00
2024-01-05T10:22:23.817Z,87370.00
2024-01-05T10:23:23.812Z,87365.00
2024-01-05T10:24:24.653Z,87365.00
2024-01-05T10:25:23.839Z,87364.00
2024-01-05T10:26:23.828Z,87361.00
2024-01-05T10:27:23.862Z,87359.00
2024-01-05T10:28:23.826Z,87357.00
2024-01-05T10:29:23.832Z,87360.00
2024-01-05T10:30:23.906Z,87351.00
2024-01-05T10:31:23.862Z,87350.00
2024-01-05T10:32:23.817Z,87346.00
2024-01-05T10:33:23.913Z,87347.00
2024-01-05T10:34:23.890Z,87348.00
2024-01-05T10:35:23.836Z,87349.00
2024-01-05T10:36:23.911Z,87345.00
2024-01-05T10:37:23.851Z,87348.00
2024-01-05T10:38:23.851Z,87352.00
2024-01-05T10:39:23.898Z,87347.00
2024-01-05T10:40:23.836Z,87352.00
2024-01-05T10:41:23.850Z,87344.00
2024-01-05T10:42:24.126Z,87341.00
2024-01-05T10:43:23.860Z,87337.00
2024-01-05T10:44:23.861Z,87341.00
2024-01-05T10:45:23.905Z,87341.00
2024-01-05T10:46:23.877Z,87337.00
2024-01-05T10:47:23.845Z,87338.00
2024-01-05T10:48:23.990Z,87334.00
2024-01-05T10:49:23.949Z,87334.00
2024-01-05T10:50:23.881Z,87332.00
2024-01-05T10:51:23.921Z,87343.00
2024-01-05T10:52:23.877Z,87340.00
2024-01-05T10:53:23.876Z,87331.00
2024-01-05T10:54:23.921Z,87333.00
2024-01-05T10:55:23.847Z,87329.00
2024-01-05T10:56:23.862Z,87323.00
2024-01-05T10:57:23.935Z,87313.00
2024-01-05T10:58:23.874Z,87303.00
2024-01-05T10:59:23.858Z,87301.00
2024-01-05T11:00:23.943Z,87309.00
2024-01-05T11:01:23.885Z,87313.00
2024-01-05T11:02:23.922Z,87315.00
2024-01-05T11:03:23.889Z,87325.00
2024-01-05T11:04:23.939Z,87319.00
2024-01-05T11:05:23.854Z,87310.00
2024-01-05T11:06:23.946Z,87308.00
2024-01-05T11:07:23.953Z,87303.00
2024-01-05T11:08:23.877Z,87294.00
2024-01-05T11:09:23.894Z,87295.00
2024-01-05T11:10:23.855Z,87290.00
2024-01-05T11:11:23.882Z,87291.00
2024-01-05T11:12:23.907Z,87293.00
2024-01-05T11:13:23.865Z,87290.00
2024-01-05T11:14:23.893Z,87289.00
2024-01-05T11:15:24.030Z,87288.00
2024-01-05T11:16:23.889Z,87289.00
2024-01-05T11:17:23.901Z,87291.00
2024-01-05T11:18:24.009Z,87294.00
2024-01-05T11:19:23.951Z,87290.00
2024-01-05T11:20:23.886Z,87297.00
2024-01-05T11:21:23.929Z,87296.00
2024-01-05T11:22:23.889Z,87294.00
2024-01-05T11:23:23.886Z,87294.00
2024-01-05T11:24:23.903Z,87299.00
2024-01-05T11:25:23.968Z,87302.00
2024-01-05T11:26:23.909Z,87303.00
2024-01-05T11:27:23.981Z,87302.00
2024-01-05T11:28:23.893Z,87299.00
2024-01-05T11:29:23.911Z,87299.00
2024-01-05T11:30:24.141Z,87299.00
2024-01-05T11:31:24.092Z,87299.00
2024-01-05T11:32:23.962Z,87301.00
2024-01-05T11:33:30.019Z,87301.00
2024-01-05T11:34:24.083Z,87296.00
2024-01-05T11:35:23.921Z,87289.00
2024-01-05T11:36:23.953Z,87293.00
2024-01-05T11:37:23.917Z,87286.00
2024-01-05T11:38:23.938Z,87277.00
2024-01-05T11:39:24.000Z,87275.00
2024-01-05T11:40:23.937Z,87267.00
2024-01-05T11:41:23.969Z,87267.00
2024-01-05T11:42:23.966Z,87263.00
2024-01-05T11:43:23.940Z,87269.00
2024-01-05T11:44:23.936Z,87271.00
2024-01-05T11:45:23.967Z,87278.00
2024-01-05T11:46:26.136Z,87271.00
2024-01-05T11:47:23.974Z,87256.00
2024-01-05T11:48:24.045Z,87258.00
2024-01-05T11:49:23.969Z,87259.00
2024-01-05T11:50:23.939Z,87251.00